createdAt,value
2019-01-07T00:00:39.039Z,0
2019-01-07T00:01:39.035Z,0
2019-01-07T00:02:39.084Z,0
2019-01-07T00:03:39.231Z,0
2019-01-07T00:04:38.966Z,0
2019-01-07T00:05:39.197Z,0
2019-01-07T00:06:39.551Z,0
2019-01-07T00:07:39.169Z,0
2019-01-07T00:08:38.900Z,0
2019-01-07T00:09:39.119Z,0
2019-01-07T00:10:39.108Z,0
2019-01-07T00:11:38.835Z,0
2019-01-07T00:12:39.065Z,0
2019-01-07T00:13:38.813Z,0
2019-01-07T00:14:39.036Z,0
2019-01-07T00:15:39.018Z,0
2019-01-07T00:16:38.999Z,0
2019-01-07T00:17:38.985Z,0
2019-01-07T00:18:38.959Z,0
2019-01-07T00:19:38.946Z,0
2019-01-07T00:20:38.681Z,0
2019-01-07T00:21:38.913Z,0
2019-01-07T00:22:38.900Z,0
2019-01-07T00:23:38.639Z,0
2019-01-07T00:24:38.859Z,0
2019-01-07T00:25:38.844Z,0
2019-01-07T00:26:38.836Z,0
2019-01-07T00:27:38.822Z,0
2019-01-07T00:28:38.789Z,0
2019-01-07T00:29:38.779Z,0
2019-01-07T00:30:38.761Z,0
2019-01-07T00:31:38.813Z,0
2019-01-07T00:32:38.475Z,0
2019-01-07T00:33:38.713Z,0
2019-01-07T00:34:38.688Z,0
2019-01-07T00:35:38.667Z,0
2019-01-07T00:36:38.412Z,0
2019-01-07T00:37:38.630Z,0
2019-01-07T00:38:38.620Z,0
2019-01-07T00:39:38.605Z,0
2019-01-07T00:40:38.592Z,0
2019-01-07T00:41:38.562Z,0
2019-01-07T00:42:38.302Z,0
2019-01-07T00:43:38.282Z,0
2019-01-07T00:44:38.532Z,0
2019-01-07T00:45:38.251Z,0
2019-01-07T00:46:38.474Z,0
2019-01-07T00:47:38.471Z,0
2019-01-07T00:48:38.445Z,0
2019-01-07T00:49:38.471Z,0
2019-01-07T00:50:38.416Z,0
2019-01-07T00:51:38.139Z,0
2019-01-07T00:52:38.371Z,0
2019-01-07T00:53:38.112Z,0
2019-01-07T00:54:38.347Z,0
2019-01-07T00:55:38.324Z,0
2019-01-07T00:56:38.305Z,0
2019-01-07T00:57:38.037Z,0
2019-01-07T00:58:38.272Z,0
2019-01-07T00:59:38.252Z,0
2019-01-07T01:00:38.245Z,0
2019-01-07T01:01:38.278Z,0
2019-01-07T01:02:37.946Z,0
2019-01-07T01:03:38.186Z,0
2019-01-07T01:04:38.177Z,0
2019-01-07T01:05:37.901Z,0
2019-01-07T01:06:38.129Z,0
2019-01-07T01:07:37.864Z,0
2019-01-07T01:08:38.091Z,0
2019-01-07T01:09:37.832Z,0
2019-01-07T01:10:38.051Z,0
2019-01-07T01:11:38.042Z,0
2019-01-07T01:12:37.776Z,0
2019-01-07T01:13:38.016Z,0
2019-01-07T01:14:37.996Z,0
2019-01-07T01:15:38.602Z,0
2019-01-07T01:16:37.962Z,0
2019-01-07T01:17:37.949Z,0
2019-01-07T01:18:37.920Z,0
2019-01-07T01:19:37.650Z,0
2019-01-07T01:20:37.384Z,0
2019-01-07T01:21:37.865Z,0
2019-01-07T01:22:37.854Z,0
2019-01-07T01:23:37.339Z,0
2019-01-07T01:24:37.825Z,0
2019-01-07T01:25:37.835Z,0
2019-01-07T01:26:37.534Z,0
2019-01-07T01:27:37.765Z,0
2019-01-07T01:28:37.747Z,0
2019-01-07T01:29:37.734Z,0
2019-01-07T01:30:37.706Z,0
2019-01-07T01:31:37.695Z,0
2019-01-07T01:32:37.424Z,0
2019-01-07T01:33:37.661Z,0
2019-01-07T01:34:37.668Z,0
2019-01-07T01:35:37.376Z,0
2019-01-07T01:36:37.364Z,0
2019-01-07T01:37:37.586Z,0
2019-01-07T01:38:37.571Z,0
2019-01-07T01:39:37.551Z,0
2019-01-07T01:40:37.287Z,0
2019-01-07T01:41:37.272Z,0
2019-01-07T01:42:37.268Z,0
2019-01-07T01:43:37.484Z,0
2019-01-07T01:44:37.475Z,0
2019-01-07T01:45:37.453Z,0
2019-01-07T01:46:37.429Z,0
2019-01-07T01:47:37.416Z,0
2019-01-07T01:48:37.237Z,0
2019-01-07T01:49:37.384Z,0
2019-01-07T01:50:37.113Z,0
2019-01-07T01:51:37.346Z,0
2019-01-07T01:52:37.330Z,0
2019-01-07T01:53:37.062Z,0
2019-01-07T01:54:37.292Z,0
2019-01-07T01:55:37.270Z,0
2019-01-07T01:56:37.261Z,0
2019-01-07T01:57:36.989Z,0
2019-01-07T01:58:36.971Z,0
2019-01-07T01:59:36.956Z,0
2019-01-07T02:00:37.187Z,0
2019-01-07T02:01:37.174Z,0
2019-01-07T02:02:36.901Z,0
2019-01-07T02:03:36.892Z,0
2019-01-07T02:04:37.119Z,0
2019-01-07T02:05:37.102Z,0
2019-01-07T02:06:37.084Z,0
2019-01-07T02:07:36.819Z,0
2019-01-07T02:08:37.055Z,0
2019-01-07T02:09:37.036Z,0
2019-01-07T02:10:36.774Z,0
2019-01-07T02:11:37.012Z,0
2019-01-07T02:12:36.735Z,0
2019-01-07T02:13:36.969Z,0
2019-01-07T02:14:36.453Z,0
2019-01-07T02:15:36.679Z,0
2019-01-07T02:16:36.414Z,0
2019-01-07T02:17:36.403Z,0
2019-01-07T02:18:36.954Z,0
2019-01-07T02:19:36.865Z,0
2019-01-07T02:20:36.848Z,0
2019-01-07T02:21:36.577Z,0
2019-01-07T02:22:36.814Z,0
2019-01-07T02:23:36.806Z,0
2019-01-07T02:24:36.778Z,0
2019-01-07T02:25:36.519Z,0
2019-01-07T02:26:36.751Z,0
2019-01-07T02:27:36.726Z,0
2019-01-07T02:28:36.461Z,0
2019-01-07T02:29:36.689Z,0
2019-01-07T02:30:36.437Z,0
2019-01-07T02:31:36.671Z,0
2019-01-07T02:32:36.658Z,0
2019-01-07T02:33:36.629Z,0
2019-01-07T02:34:36.359Z,0
2019-01-07T02:35:36.584Z,0
2019-01-07T02:36:36.344Z,0
2019-01-07T02:37:36.552Z,0
2019-01-07T02:38:36.548Z,0
2019-01-07T02:39:36.525Z,0
2019-01-07T02:40:36.257Z,0
2019-01-07T02:41:36.559Z,0
2019-01-07T02:42:36.246Z,0
2019-01-07T02:43:36.452Z,0
2019-01-07T02:44:36.186Z,0
2019-01-07T02:45:36.433Z,0
2019-01-07T02:46:36.400Z,0
2019-01-07T02:47:36.392Z,0
2019-01-07T02:48:36.367Z,0
2019-01-07T02:49:36.097Z,0
2019-01-07T02:50:36.330Z,0
2019-01-07T02:51:36.327Z,0
2019-01-07T02:52:36.239Z,0
2019-01-07T02:53:36.290Z,0
2019-01-07T02:54:36.021Z,0
2019-01-07T02:55:35.999Z,0
2019-01-07T02:56:36.310Z,0
2019-01-07T02:57:36.214Z,0
2019-01-07T02:58:36.242Z,0
2019-01-07T02:59:36.177Z,0
2019-01-07T03:00:36.159Z,0
2019-01-07T03:01:35.654Z,0
2019-01-07T03:02:36.021Z,0
2019-01-07T03:03:35.865Z,0
2019-01-07T03:04:36.092Z,0
2019-01-07T03:05:36.085Z,0
2019-01-07T03:06:35.810Z,0
2019-01-07T03:07:36.048Z,0
2019-01-07T03:08:36.110Z,0
2019-01-07T03:09:36.001Z,0
2019-01-07T03:10:35.773Z,0
2019-01-07T03:11:35.972Z,0
2019-01-07T03:12:35.968Z,0
2019-01-07T03:13:35.938Z,0
2019-01-07T03:14:35.946Z,0
2019-01-07T03:15:35.701Z,0
2019-01-07T03:16:35.649Z,0
2019-01-07T03:17:35.620Z,0
2019-01-07T03:18:35.853Z,0
2019-01-07T03:19:35.601Z,0
2019-01-07T03:20:35.575Z,0
2019-01-07T03:21:35.819Z,0
2019-01-07T03:22:35.791Z,0
2019-01-07T03:23:35.772Z,0
2019-01-07T03:24:35.752Z,0
2019-01-07T03:25:35.754Z,0
2019-01-07T03:26:35.485Z,0
2019-01-07T03:27:35.539Z,0
2019-01-07T03:28:35.756Z,0
2019-01-07T03:29:35.421Z,0
2019-01-07T03:30:35.688Z,0
2019-01-07T03:31:35.721Z,0
2019-01-07T03:32:35.733Z,0
2019-01-07T03:33:35.602Z,0
2019-01-07T03:34:36.328Z,0
2019-01-07T03:35:35.560Z,0
2019-01-07T03:36:35.058Z,0
2019-01-07T03:37:35.543Z,0
2019-01-07T03:38:35.516Z,0
2019-01-07T03:39:35.509Z,0
2019-01-07T03:40:35.478Z,0
2019-01-07T03:41:35.468Z,0
2019-01-07T03:42:35.187Z,0
2019-01-07T03:43:35.428Z,0
2019-01-07T03:44:35.167Z,0
2019-01-07T03:45:35.399Z,0
2019-01-07T03:46:35.377Z,0
2019-01-07T03:47:35.107Z,0
2019-01-07T03:48:35.358Z,0
2019-01-07T03:49:35.328Z,0
2019-01-07T03:50:35.058Z,0
2019-01-07T03:51:35.336Z,0
2019-01-07T03:52:35.271Z,0
2019-01-07T03:53:35.286Z,0
2019-01-07T03:54:35.239Z,0
2019-01-07T03:55:35.218Z,0
2019-01-07T03:56:35.228Z,0
2019-01-07T03:57:35.205Z,0
2019-01-07T03:58:35.179Z,0
2019-01-07T03:59:35.156Z,0
2019-01-07T04:00:35.144Z,0
2019-01-07T04:01:34.919Z,0
2019-01-07T04:02:36.110Z,0
2019-01-07T04:03:35.086Z,0
2019-01-07T04:04:35.063Z,0
2019-01-07T04:05:35.052Z,0
2019-01-07T04:06:35.060Z,0
2019-01-07T04:07:35.045Z,0
2019-01-07T04:08:34.994Z,0
2019-01-07T04:09:34.979Z,0
2019-01-07T04:10:34.968Z,0
2019-01-07T04:11:34.984Z,0
2019-01-07T04:12:34.938Z,0
2019-01-07T04:13:34.922Z,0
2019-01-07T04:14:34.907Z,0
2019-01-07T04:15:34.884Z,0
2019-01-07T04:16:34.869Z,0
2019-01-07T04:17:34.844Z,0
2019-01-07T04:18:34.855Z,0
2019-01-07T04:19:34.830Z,0
2019-01-07T04:20:34.791Z,0
2019-01-07T04:21:34.771Z,0
2019-01-07T04:22:34.513Z,0
2019-01-07T04:23:34.746Z,0
2019-01-07T04:24:34.476Z,0
2019-01-07T04:25:34.611Z,0
2019-01-07T04:26:34.707Z,0
2019-01-07T04:27:34.670Z,0
2019-01-07T04:28:34.205Z,0
2019-01-07T04:29:34.643Z,0
2019-01-07T04:30:34.633Z,0
2019-01-07T04:31:34.610Z,0
2019-01-07T04:32:34.604Z,0
2019-01-07T04:33:34.592Z,0
2019-01-07T04:34:34.563Z,0
2019-01-07T04:35:34.541Z,0
2019-01-07T04:36:34.540Z,0
2019-01-07T04:37:35.784Z,0
2019-01-07T04:38:34.490Z,0
2019-01-07T04:39:34.517Z,0
2019-01-07T04:40:34.560Z,0
2019-01-07T04:41:34.453Z,0
2019-01-07T04:42:34.178Z,0
2019-01-07T04:43:34.410Z,0
2019-01-07T04:44:34.965Z,0
2019-01-07T04:45:34.365Z,0
2019-01-07T04:46:34.366Z,0
2019-01-07T04:47:34.084Z,0
2019-01-07T04:48:34.068Z,0
2019-01-07T04:49:34.292Z,0
2019-01-07T04:50:34.297Z,0
2019-01-07T04:51:34.029Z,0
2019-01-07T04:52:34.000Z,0
2019-01-07T04:53:33.978Z,0
2019-01-07T04:54:34.240Z,0
2019-01-07T04:55:34.230Z,0
2019-01-07T04:56:34.187Z,0
2019-01-07T04:57:34.172Z,0
2019-01-07T04:58:34.145Z,0
2019-01-07T04:59:33.877Z,0
2019-01-07T05:00:34.098Z,0
2019-01-07T05:01:34.089Z,0
2019-01-07T05:02:34.089Z,0
2019-01-07T05:03:34.105Z,0
2019-01-07T05:04:34.038Z,0
2019-01-07T05:05:34.026Z,0
2019-01-07T05:06:34.136Z,0
2019-01-07T05:07:34.079Z,0
2019-01-07T05:08:34.064Z,0
2019-01-07T05:09:33.993Z,0
2019-01-07T05:10:33.942Z,0
2019-01-07T05:11:33.913Z,0
2019-01-07T05:12:33.896Z,0
2019-01-07T05:13:33.969Z,0
2019-01-07T05:14:33.869Z,0
2019-01-07T05:15:33.857Z,0
2019-01-07T05:16:33.830Z,0
2019-01-07T05:17:33.573Z,0
2019-01-07T05:18:33.803Z,0
2019-01-07T05:19:33.784Z,0
2019-01-07T05:20:33.810Z,0
2019-01-07T05:21:33.756Z,0
2019-01-07T05:22:33.741Z,0
2019-01-07T05:23:33.713Z,0
2019-01-07T05:24:33.691Z,0
2019-01-07T05:25:33.711Z,0
2019-01-07T05:26:33.410Z,0
2019-01-07T05:27:33.654Z,0
2019-01-07T05:28:33.621Z,0
2019-01-07T05:29:33.600Z,0
2019-01-07T05:30:33.586Z,0
2019-01-07T05:31:33.579Z,0
2019-01-07T05:32:34.329Z,0
2019-01-07T05:33:33.297Z,0
2019-01-07T05:34:33.270Z,0
2019-01-07T05:35:33.262Z,0
2019-01-07T05:36:33.478Z,0
2019-01-07T05:37:33.467Z,0
2019-01-07T05:38:33.464Z,0
2019-01-07T05:39:33.439Z,0
2019-01-07T05:40:33.424Z,0
2019-01-07T05:41:33.410Z,0
2019-01-07T05:42:33.169Z,0
2019-01-07T05:43:33.113Z,0
2019-01-07T05:44:33.346Z,0
2019-01-07T05:45:32.838Z,0
2019-01-07T05:46:33.319Z,0
2019-01-07T05:47:33.044Z,0
2019-01-07T05:48:33.028Z,0
2019-01-07T05:49:33.011Z,0
2019-01-07T05:50:32.988Z,0
2019-01-07T05:51:33.217Z,0
2019-01-07T05:52:32.957Z,0
2019-01-07T05:53:33.205Z,0
2019-01-07T05:54:33.178Z,0
2019-01-07T05:55:32.909Z,0
2019-01-07T05:56:33.142Z,0
2019-01-07T05:57:32.872Z,0
2019-01-07T05:58:33.103Z,0
2019-01-07T05:59:32.854Z,0
2019-01-07T06:00:33.079Z,0
2019-01-07T06:01:33.088Z,0
2019-01-07T06:02:33.032Z,0
2019-01-07T06:03:33.022Z,0
2019-01-07T06:04:33.018Z,0
2019-01-07T06:05:32.990Z,0
2019-01-07T06:06:32.967Z,0
2019-01-07T06:07:32.940Z,0
2019-01-07T06:08:34.247Z,0
2019-01-07T06:09:32.917Z,0
2019-01-07T06:10:32.662Z,0
2019-01-07T06:11:32.624Z,0
2019-01-07T06:12:32.615Z,0
2019-01-07T06:13:32.842Z,0
2019-01-07T06:14:32.822Z,0
2019-01-07T06:15:32.813Z,0
2019-01-07T06:16:32.788Z,0
2019-01-07T06:17:32.537Z,0
2019-01-07T06:18:32.773Z,0
2019-01-07T06:19:32.487Z,0
2019-01-07T06:20:32.723Z,0
2019-01-07T06:21:32.454Z,0
2019-01-07T06:22:32.436Z,0
2019-01-07T06:23:32.670Z,0
2019-01-07T06:24:32.651Z,0
2019-01-07T06:25:32.389Z,0
2019-01-07T06:26:32.365Z,0
2019-01-07T06:27:32.599Z,0
2019-01-07T06:28:32.579Z,0
2019-01-07T06:29:32.562Z,0
2019-01-07T06:30:32.541Z,0
2019-01-07T06:31:32.329Z,0
2019-01-07T06:32:32.262Z,0
2019-01-07T06:33:32.247Z,0
2019-01-07T06:34:32.483Z,0
2019-01-07T06:35:32.545Z,0
2019-01-07T06:36:32.198Z,0
2019-01-07T06:37:32.421Z,0
2019-01-07T06:38:32.404Z,0
2019-01-07T06:39:32.377Z,0
2019-01-07T06:40:32.375Z,0
2019-01-07T06:41:32.358Z,0
2019-01-07T06:42:33.210Z,0
2019-01-07T06:43:32.321Z,0
2019-01-07T06:44:32.055Z,0
2019-01-07T06:45:32.282Z,0
2019-01-07T06:46:32.265Z,0
2019-01-07T06:47:31.995Z,0
2019-01-07T06:48:31.990Z,0
2019-01-07T06:49:32.200Z,0
2019-01-07T06:50:32.201Z,0
2019-01-07T06:51:31.924Z,0
2019-01-07T06:52:32.213Z,0
2019-01-07T06:53:32.144Z,0
2019-01-07T06:54:32.124Z,0
2019-01-07T06:55:32.101Z,0
2019-01-07T06:56:32.092Z,0
2019-01-07T06:57:32.117Z,0
2019-01-07T06:58:31.810Z,0
2019-01-07T06:59:32.034Z,0
2019-01-07T07:00:31.588Z,0
2019-01-07T07:01:32.001Z,0
2019-01-07T07:02:31.488Z,0
2019-01-07T07:03:31.962Z,0
2019-01-07T07:04:31.701Z,0
2019-01-07T07:05:31.938Z,0
2019-01-07T07:06:31.916Z,0
2019-01-07T07:07:31.896Z,0
2019-01-07T07:08:31.884Z,0
2019-01-07T07:09:31.854Z,0
2019-01-07T07:10:31.596Z,0
2019-01-07T07:11:31.579Z,0
2019-01-07T07:12:31.812Z,0
2019-01-07T07:13:31.787Z,0
2019-01-07T07:14:31.530Z,0
2019-01-07T07:15:31.764Z,0
2019-01-07T07:16:31.744Z,0
2019-01-07T07:17:31.721Z,0
2019-01-07T07:18:31.456Z,0
2019-01-07T07:19:31.685Z,0
2019-01-07T07:20:31.674Z,0
2019-01-07T07:21:31.653Z,0
2019-01-07T07:22:31.633Z,0
2019-01-07T07:23:33.695Z,0
2019-01-07T07:24:31.600Z,0
2019-01-07T07:25:31.583Z,0
2019-01-07T07:26:31.567Z,0
2019-01-07T07:27:31.301Z,0
2019-01-07T07:28:31.532Z,0
2019-01-07T07:29:31.512Z,0
2019-01-07T07:30:37.506Z,0
2019-01-07T07:31:31.482Z,0
2019-01-07T07:32:31.475Z,0
2019-01-07T07:33:31.451Z,0
2019-01-07T07:34:30.933Z,0
2019-01-07T07:35:31.835Z,0
2019-01-07T07:36:31.160Z,0
2019-01-07T07:37:31.376Z,0
2019-01-07T07:38:31.364Z,5
2019-01-07T07:39:30.915Z,5
2019-01-07T07:40:31.323Z,5
2019-01-07T07:41:31.308Z,5
2019-01-07T07:42:31.294Z,5
2019-01-07T07:43:31.275Z,5
2019-01-07T07:44:31.259Z,5
2019-01-07T07:45:31.238Z,5
2019-01-07T07:46:30.976Z,5
2019-01-07T07:47:31.025Z,5
2019-01-07T07:48:30.933Z,5
2019-01-07T07:49:30.669Z,5
2019-01-07T07:50:30.898Z,10
2019-01-07T07:51:31.132Z,10
2019-01-07T07:52:30.864Z,10
2019-01-07T07:53:32.910Z,10
2019-01-07T07:54:30.840Z,15
2019-01-07T07:55:31.064Z,10
2019-01-07T07:56:30.793Z,15
2019-01-07T07:57:31.039Z,15
2019-01-07T07:58:31.008Z,15
2019-01-07T07:59:30.749Z,10
2019-01-07T08:00:30.976Z,10
2019-01-07T08:01:30.960Z,15
2019-01-07T08:02:30.940Z,15
2019-01-07T08:03:30.676Z,15
2019-01-07T08:04:30.912Z,15
2019-01-07T08:05:30.653Z,15
2019-01-07T08:06:30.876Z,15
2019-01-07T08:07:30.857Z,15
2019-01-07T08:08:30.339Z,15
2019-01-07T08:09:30.922Z,15
2019-01-07T08:10:30.802Z,20
2019-01-07T08:11:31.128Z,20
2019-01-07T08:12:30.784Z,20
2019-01-07T08:13:30.765Z,25
2019-01-07T08:14:30.809Z,25
2019-01-07T08:15:30.711Z,25
2019-01-07T08:16:30.701Z,15
2019-01-07T08:17:30.437Z,15
2019-01-07T08:18:30.671Z,20
2019-01-07T08:19:30.398Z,20
2019-01-07T08:20:30.383Z,20
2019-01-07T08:21:30.617Z,20
2019-01-07T08:22:30.605Z,15
2019-01-07T08:23:30.334Z,10
2019-01-07T08:24:30.320Z,15
2019-01-07T08:25:30.543Z,15
2019-01-07T08:26:30.279Z,15
2019-01-07T08:27:30.517Z,20
2019-01-07T08:28:30.494Z,25
2019-01-07T08:29:30.227Z,25
2019-01-07T08:30:30.463Z,20
2019-01-07T08:31:30.455Z,15
2019-01-07T08:32:30.422Z,20
2019-01-07T08:33:30.482Z,20
2019-01-07T08:34:30.418Z,25
2019-01-07T08:35:30.373Z,25
2019-01-07T08:36:30.357Z,25
2019-01-07T08:37:30.365Z,25
2019-01-07T08:38:30.325Z,25
2019-01-07T08:39:30.056Z,25
2019-01-07T08:40:30.297Z,25
2019-01-07T08:41:30.267Z,25
2019-01-07T08:42:29.998Z,20
2019-01-07T08:43:31.624Z,15
2019-01-07T08:44:29.968Z,15
2019-01-07T08:45:30.198Z,20
2019-01-07T08:46:29.934Z,15
2019-01-07T08:47:30.159Z,15
2019-01-07T08:48:30.145Z,15
2019-01-07T08:49:30.131Z,15
2019-01-07T08:50:29.862Z,15
2019-01-07T08:51:30.101Z,15
2019-01-07T08:52:29.834Z,10
2019-01-07T08:53:31.083Z,15
2019-01-07T08:54:35.139Z,20
2019-01-07T08:55:36.615Z,20
2019-01-07T08:56:31.593Z,25
2019-01-07T08:57:29.993Z,30
2019-01-07T08:58:29.982Z,35
2019-01-07T08:59:29.457Z,40
2019-01-07T09:00:29.943Z,45
2019-01-07T09:01:29.923Z,50
2019-01-07T09:02:29.910Z,55
2019-01-07T09:03:29.790Z,55
2019-01-07T09:04:29.621Z,65
2019-01-07T09:05:29.608Z,65
2019-01-07T09:06:29.840Z,80
2019-01-07T09:07:29.822Z,80
2019-01-07T09:08:29.559Z,70
2019-01-07T09:09:29.782Z,65
2019-01-07T09:10:29.765Z,60
2019-01-07T09:11:29.496Z,60
2019-01-07T09:12:29.234Z,70
2019-01-07T09:13:29.718Z,65
2019-01-07T09:14:29.698Z,55
2019-01-07T09:15:29.683Z,55
2019-01-07T09:16:29.662Z,60
2019-01-07T09:17:29.401Z,60
2019-01-07T09:18:29.382Z,50
2019-01-07T09:19:29.614Z,50
2019-01-07T09:20:29.600Z,45
2019-01-07T09:21:29.583Z,45
2019-01-07T09:22:29.566Z,50
2019-01-07T09:23:29.297Z,45
2019-01-07T09:24:36.217Z,55
2019-01-07T09:25:29.260Z,55
2019-01-07T09:26:29.498Z,55
2019-01-07T09:27:29.474Z,50
2019-01-07T09:28:29.461Z,55
2019-01-07T09:29:29.439Z,60
2019-01-07T09:30:29.426Z,55
2019-01-07T09:31:29.532Z,60
2019-01-07T09:32:29.388Z,55
2019-01-07T09:33:30.419Z,60
2019-01-07T09:34:29.944Z,60
2019-01-07T09:35:29.611Z,60
2019-01-07T09:36:30.110Z,60
2019-01-07T09:37:29.629Z,60
2019-01-07T09:38:30.118Z,65
2019-01-07T09:39:29.564Z,55
2019-01-07T09:40:29.506Z,65
2019-01-07T09:41:29.738Z,65
2019-01-07T09:42:29.524Z,75
2019-01-07T09:43:29.792Z,75
2019-01-07T09:44:29.584Z,75
2019-01-07T09:45:29.385Z,75
2019-01-07T09:46:29.487Z,80
2019-01-07T09:47:29.712Z,75
2019-01-07T09:48:28.799Z,100
2019-01-07T09:49:29.706Z,80
2019-01-07T09:50:29.452Z,75
2019-01-07T09:51:29.057Z,65
2019-01-07T09:52:29.041Z,60
2019-01-07T09:53:29.026Z,55
2019-01-07T09:54:29.011Z,60
2019-01-07T09:55:28.744Z,75
2019-01-07T09:56:28.730Z,85
2019-01-07T09:57:28.961Z,85
2019-01-07T09:58:28.698Z,100
2019-01-07T09:59:28.929Z,105
2019-01-07T10:00:28.910Z,70
2019-01-07T10:01:28.969Z,70
2019-01-07T10:02:28.629Z,65
2019-01-07T10:03:28.854Z,55
2019-01-07T10:04:28.737Z,65
2019-01-07T10:05:28.820Z,75
2019-01-07T10:06:28.754Z,85
2019-01-07T10:07:28.539Z,80
2019-01-07T10:08:28.773Z,90
2019-01-07T10:09:28.747Z,85
2019-01-07T10:10:28.733Z,70
2019-01-07T10:11:28.734Z,65
2019-01-07T10:12:28.450Z,65
2019-01-07T10:13:28.678Z,75
2019-01-07T10:14:28.678Z,65
2019-01-07T10:15:29.059Z,65
2019-01-07T10:16:28.386Z,70
2019-01-07T10:17:28.689Z,75
2019-01-07T10:18:28.349Z,80
2019-01-07T10:19:28.592Z,95
2019-01-07T10:20:28.639Z,105
2019-01-07T10:21:28.296Z,95
2019-01-07T10:22:28.543Z,95
2019-01-07T10:23:28.515Z,80
2019-01-07T10:24:28.502Z,75
2019-01-07T10:25:28.554Z,70
2019-01-07T10:26:28.497Z,55
2019-01-07T10:27:27.957Z,45
2019-01-07T10:28:28.421Z,45
2019-01-07T10:29:28.411Z,45
2019-01-07T10:30:28.589Z,50
2019-01-07T10:31:28.383Z,65
2019-01-07T10:32:28.356Z,80
2019-01-07T10:33:28.354Z,85
2019-01-07T10:34:28.320Z,90
2019-01-07T10:35:28.312Z,90
2019-01-07T10:36:28.291Z,85
2019-01-07T10:37:28.273Z,80
2019-01-07T10:38:29.764Z,80
2019-01-07T10:39:27.987Z,70
2019-01-07T10:40:28.022Z,75
2019-01-07T10:41:28.226Z,85
2019-01-07T10:42:28.184Z,80
2019-01-07T10:43:28.170Z,80
2019-01-07T10:44:28.201Z,80
2019-01-07T10:45:28.129Z,70
2019-01-07T10:46:27.869Z,70
2019-01-07T10:47:27.867Z,75
2019-01-07T10:48:27.835Z,80
2019-01-07T10:49:28.124Z,95
2019-01-07T10:50:28.051Z,90
2019-01-07T10:51:28.037Z,105
2019-01-07T10:52:28.089Z,110
2019-01-07T10:53:27.996Z,100
2019-01-07T10:54:27.494Z,95
2019-01-07T10:55:27.711Z,80
2019-01-07T10:56:27.947Z,90
2019-01-07T10:57:27.676Z,75
2019-01-07T10:58:27.666Z,75
2019-01-07T10:59:27.646Z,70
2019-01-07T11:00:27.873Z,75
2019-01-07T11:01:27.611Z,80
2019-01-07T11:02:27.848Z,75
2019-01-07T11:03:27.579Z,80
2019-01-07T11:04:27.829Z,80
2019-01-07T11:05:27.814Z,80
2019-01-07T11:06:27.783Z,80
2019-01-07T11:07:27.760Z,85
2019-01-07T11:08:27.739Z,95
2019-01-07T11:09:27.719Z,90
2019-01-07T11:10:27.707Z,115
2019-01-07T11:11:27.687Z,110
2019-01-07T11:12:27.426Z,110
2019-01-07T11:13:27.655Z,115
2019-01-07T11:14:27.637Z,85
2019-01-07T11:15:27.629Z,80
2019-01-07T11:16:27.358Z,70
2019-01-07T11:17:27.579Z,70
2019-01-07T11:18:27.321Z,80
2019-01-07T11:19:27.602Z,80
2019-01-07T11:20:27.691Z,85
2019-01-07T11:21:27.524Z,85
2019-01-07T11:22:27.506Z,95
2019-01-07T11:23:27.488Z,85
2019-01-07T11:24:28.454Z,90
2019-01-07T11:25:27.202Z,85
2019-01-07T11:26:27.435Z,75
2019-01-07T11:27:27.416Z,75
2019-01-07T11:28:27.399Z,80
2019-01-07T11:29:27.378Z,80
2019-01-07T11:30:27.372Z,70
2019-01-07T11:31:27.096Z,60
2019-01-07T11:32:27.329Z,65
2019-01-07T11:33:27.309Z,60
2019-01-07T11:34:27.331Z,70
2019-01-07T11:35:27.288Z,75
2019-01-07T11:36:27.262Z,80
2019-01-07T11:37:26.990Z,75
2019-01-07T11:38:27.227Z,90
2019-01-07T11:39:27.207Z,85
2019-01-07T11:40:27.198Z,95
2019-01-07T11:41:27.172Z,80
2019-01-07T11:42:26.908Z,100
2019-01-07T11:43:27.141Z,95
2019-01-07T11:44:26.878Z,90
2019-01-07T11:45:26.683Z,80
2019-01-07T11:46:27.086Z,75
2019-01-07T11:47:26.696Z,85
2019-01-07T11:48:27.065Z,85
2019-01-07T11:49:26.873Z,115
2019-01-07T11:50:26.793Z,110
2019-01-07T11:51:26.761Z,90
2019-01-07T11:52:26.986Z,75
2019-01-07T11:53:26.978Z,70
2019-01-07T11:54:26.726Z,75
2019-01-07T11:55:26.942Z,75
2019-01-07T11:56:26.926Z,65
2019-01-07T11:57:26.909Z,55
2019-01-07T11:58:26.643Z,55
2019-01-07T11:59:27.390Z,60
2019-01-07T12:00:26.854Z,65
2019-01-07T12:01:26.594Z,70
2019-01-07T12:02:30.537Z,85
2019-01-07T12:03:26.815Z,75
2019-01-07T12:04:26.533Z,60
2019-01-07T12:05:26.778Z,70
2019-01-07T12:06:26.501Z,75
2019-01-07T12:07:26.479Z,70
2019-01-07T12:08:26.715Z,75
2019-01-07T12:09:26.520Z,70
2019-01-07T12:10:26.438Z,60
2019-01-07T12:11:26.416Z,60
2019-01-07T12:12:26.649Z,65
2019-01-07T12:13:26.390Z,65
2019-01-07T12:14:31.835Z,55
2019-01-07T12:15:26.350Z,60
2019-01-07T12:16:26.584Z,50
2019-01-07T12:17:26.573Z,60
2019-01-07T12:18:26.050Z,55
2019-01-07T12:19:26.531Z,65
2019-01-07T12:20:26.534Z,55
2019-01-07T12:21:26.640Z,55
2019-01-07T12:22:26.484Z,55
2019-01-07T12:23:26.462Z,50
2019-01-07T12:24:26.445Z,55
2019-01-07T12:25:31.891Z,70
2019-01-07T12:26:26.405Z,80
2019-01-07T12:27:26.438Z,80
2019-01-07T12:28:26.387Z,80
2019-01-07T12:29:27.548Z,110
2019-01-07T12:30:26.366Z,85
2019-01-07T12:31:26.339Z,65
2019-01-07T12:32:26.145Z,55
2019-01-07T12:33:26.430Z,50
2019-01-07T12:34:26.371Z,45
2019-01-07T12:35:26.412Z,40
2019-01-07T12:36:26.342Z,35
2019-01-07T12:37:26.362Z,40
2019-01-07T12:38:25.988Z,45
2019-01-07T12:39:26.377Z,40
2019-01-07T12:40:26.277Z,45
2019-01-07T12:41:26.249Z,35
2019-01-07T12:42:26.223Z,35
2019-01-07T12:43:26.160Z,35
2019-01-07T12:44:25.960Z,40
2019-01-07T12:45:26.160Z,40
2019-01-07T12:46:26.190Z,35
2019-01-07T12:47:26.201Z,35
2019-01-07T12:48:25.820Z,35
2019-01-07T12:49:26.151Z,35
2019-01-07T12:50:26.083Z,35
2019-01-07T12:51:25.734Z,45
2019-01-07T12:52:25.965Z,55
2019-01-07T12:53:25.689Z,50
2019-01-07T12:54:25.431Z,45
2019-01-07T12:55:32.839Z,40
2019-01-07T12:56:25.892Z,35
2019-01-07T12:57:25.880Z,30
2019-01-07T12:58:25.853Z,30
2019-01-07T12:59:25.843Z,25
2019-01-07T13:00:25.823Z,20
2019-01-07T13:01:25.560Z,20
2019-01-07T13:02:25.792Z,20
2019-01-07T13:03:25.798Z,15
2019-01-07T13:04:25.254Z,15
2019-01-07T13:05:25.570Z,20
2019-01-07T13:06:25.804Z,20
2019-01-07T13:07:25.718Z,15
2019-01-07T13:08:25.686Z,15
2019-01-07T13:09:25.671Z,15
2019-01-07T13:10:25.396Z,15
2019-01-07T13:11:25.639Z,15
2019-01-07T13:12:25.619Z,15
2019-01-07T13:13:25.609Z,15
2019-01-07T13:14:25.606Z,25
2019-01-07T13:15:25.308Z,25
2019-01-07T13:16:25.301Z,25
2019-01-07T13:17:25.549Z,20
2019-01-07T13:18:25.264Z,15
2019-01-07T13:19:25.259Z,15
2019-01-07T13:20:25.474Z,15
2019-01-07T13:21:25.460Z,15
2019-01-07T13:22:25.201Z,15
2019-01-07T13:23:25.462Z,15
2019-01-07T13:24:25.409Z,15
2019-01-07T13:25:25.145Z,20
2019-01-07T13:26:25.380Z,25
2019-01-07T13:27:25.358Z,25
2019-01-07T13:28:25.344Z,35
2019-01-07T13:29:25.327Z,45
2019-01-07T13:30:25.054Z,45
2019-01-07T13:31:25.291Z,35
2019-01-07T13:32:25.277Z,30
2019-01-07T13:33:25.005Z,25
2019-01-07T13:34:25.247Z,20
2019-01-07T13:35:25.217Z,25
2019-01-07T13:36:25.054Z,35
2019-01-07T13:37:24.944Z,30
2019-01-07T13:38:25.164Z,25
2019-01-07T13:39:25.930Z,30
2019-01-07T13:40:24.891Z,40
2019-01-07T13:41:25.117Z,30
2019-01-07T13:42:25.153Z,25
2019-01-07T13:43:25.086Z,25
2019-01-07T13:44:25.070Z,30
2019-01-07T13:45:25.048Z,25
2019-01-07T13:46:25.023Z,20
2019-01-07T13:47:24.765Z,25
2019-01-07T13:48:24.745Z,30
2019-01-07T13:49:24.486Z,30
2019-01-07T13:50:24.963Z,35
2019-01-07T13:51:24.694Z,35
2019-01-07T13:52:24.931Z,35
2019-01-07T13:53:24.665Z,35
2019-01-07T13:54:24.653Z,30
2019-01-07T13:55:24.637Z,30
2019-01-07T13:56:24.876Z,30
2019-01-07T13:57:24.900Z,40
2019-01-07T13:58:24.834Z,35
2019-01-07T13:59:24.821Z,40
2019-01-07T14:00:24.790Z,55
2019-01-07T14:01:24.803Z,60
2019-01-07T14:02:24.755Z,45
2019-01-07T14:03:24.489Z,45
2019-01-07T14:04:24.482Z,45
2019-01-07T14:05:24.543Z,40
2019-01-07T14:06:25.793Z,35
2019-01-07T14:07:24.672Z,30
2019-01-07T14:08:28.746Z,20
2019-01-07T14:09:24.641Z,20
2019-01-07T14:10:24.620Z,20
2019-01-07T14:11:24.352Z,20
2019-01-07T14:12:24.336Z,20
2019-01-07T14:13:24.570Z,20
2019-01-07T14:14:24.546Z,20
2019-01-07T14:15:24.530Z,20
2019-01-07T14:16:24.516Z,15
2019-01-07T14:17:25.982Z,15
2019-01-07T14:18:24.482Z,15
2019-01-07T14:19:24.215Z,15
2019-01-07T14:20:24.447Z,15
2019-01-07T14:21:24.433Z,15
2019-01-07T14:22:24.410Z,15
2019-01-07T14:23:23.894Z,10
2019-01-07T14:24:24.375Z,10
2019-01-07T14:25:24.388Z,15
2019-01-07T14:26:24.341Z,15
2019-01-07T14:27:24.081Z,20
2019-01-07T14:28:24.061Z,20
2019-01-07T14:29:23.808Z,20
2019-01-07T14:30:24.280Z,30
2019-01-07T14:31:24.255Z,40